Here is the Quick Look data you requested

The Data originates at the National Weather Service, and is made available here by the UAlbany Department of Atmospheric and Environmental Sciences

Surface Observations

KBDL 180251Z 18007KT 10SM FEW210 FEW250 23/13 A3004 RMK AO2 SLP171 T02280133
 51003=
KBDR 180252Z AUTO 21004KT 10SM CLR 22/16 A3006 RMK AO2 SLP179 T02220156 50000=
KGON 180256Z AUTO 00000KT 10SM CLR 17/16 A3007 RMK AO2 SLP181 T01720156 56001=
KHFD 180253Z 19005KT 10SM CLR 22/13 A3004 RMK AO2 SLP173 T02220133 53001 $=
KHVN 180253Z AUTO 18004KT 10SM CLR 19/16 A3007 RMK AO2 SLP181 T01940156 50000=
KIJD 180252Z AUTO 14003KT 10SM CLR 22/13 A3006 RMK AO2 SLP178 T02170133 50000=
KMMK 180253Z AUTO 18005KT 10SM CLR 20/13 A3006 RMK AO2 SLP177 T02000133 53002=
KOXC 180251Z AUTO 17003KT 10SM CLR 21/13 A3009 RMK AO2 SLP194 T02060128 58000=